sensor_id;sensor_type;location;lat;lon;timestamp;temperature;humidity
56771;DHT22;42641;59.794;17.616;2023-12-20T00:01:55;0.10;99.90
56771;DHT22;42641;59.794;17.616;2023-12-20T00:04:21;0.10;99.90
56771;DHT22;42641;59.794;17.616;2023-12-20T00:06:48;0.10;99.90
56771;DHT22;42641;59.794;17.616;2023-12-20T00:09:14;0.10;99.90
56771;DHT22;42641;59.794;17.616;2023-12-20T00:11:40;0.10;99.90
56771;DHT22;42641;59.794;17.616;2023-12-20T00:14:08;0.10;99.90
56771;DHT22;42641;59.794;17.616;2023-12-20T00:16:34;0.10;99.90
56771;DHT22;42641;59.794;17.616;2023-12-20T00:19:01;0.00;99.90
56771;DHT22;42641;59.794;17.616;2023-12-20T00:21:27;0.00;99.90
56771;DHT22;42641;59.794;17.616;2023-12-20T00:23:54;0.00;99.90
56771;DHT22;42641;59.794;17.616;2023-12-20T00:26:20;0.00;99.90
56771;DHT22;42641;59.794;17.616;2023-12-20T00:28:46;0.00;99.90
56771;DHT22;42641;59.794;17.616;2023-12-20T00:31:15;-0.10;99.90
56771;DHT22;42641;59.794;17.616;2023-12-20T00:33:41;0.00;99.90
56771;DHT22;42641;59.794;17.616;2023-12-20T00:36:09;0.00;99.90
56771;DHT22;42641;59.794;17.616;2023-12-20T00:38:36;0.00;99.90
56771;DHT22;42641;59.794;17.616;2023-12-20T00:41:02;0.00;99.90
56771;DHT22;42641;59.794;17.616;2023-12-20T00:43:29;0.00;99.90
56771;DHT22;42641;59.794;17.616;2023-12-20T00:45:55;0.00;99.90
56771;DHT22;42641;59.794;17.616;2023-12-20T00:48:21;-0.10;99.90
56771;DHT22;42641;59.794;17.616;2023-12-20T00:50:48;-0.10;99.90
56771;DHT22;42641;59.794;17.616;2023-12-20T00:53:14;-0.10;99.90
56771;DHT22;42641;59.794;17.616;2023-12-20T00:55:40;-0.10;99.90
56771;DHT22;42641;59.794;17.616;2023-12-20T00:58:07;-0.10;99.90
56771;DHT22;42641;59.794;17.616;2023-12-20T01:00:33;-0.10;99.90
56771;DHT22;42641;59.794;17.616;2023-12-20T01:03:00;-0.20;99.90
56771;DHT22;42641;59.794;17.616;2023-12-20T01:05:26;-0.20;99.90
56771;DHT22;42641;59.794;17.616;2023-12-20T01:07:53;-0.20;99.90
56771;DHT22;42641;59.794;17.616;2023-12-20T01:10:19;-0.20;99.90
56771;DHT22;42641;59.794;17.616;2023-12-20T01:12:45;-0.30;99.90
56771;DHT22;42641;59.794;17.616;2023-12-20T01:15:12;-0.30;99.90
56771;DHT22;42641;59.794;17.616;2023-12-20T01:17:38;-0.30;99.90
56771;DHT22;42641;59.794;17.616;2023-12-20T01:20:05;-0.30;99.90
56771;DHT22;42641;59.794;17.616;2023-12-20T01:22:32;-0.40;99.90
56771;DHT22;42641;59.794;17.616;2023-12-20T01:24:58;-0.40;99.90
56771;DHT22;42641;59.794;17.616;2023-12-20T01:27:25;-0.40;99.90
56771;DHT22;42641;59.794;17.616;2023-12-20T01:29:51;-0.40;99.90
56771;DHT22;42641;59.794;17.616;2023-12-20T01:32:17;-0.40;99.90
56771;DHT22;42641;59.794;17.616;2023-12-20T01:34:44;-0.50;99.90
56771;DHT22;42641;59.794;17.616;2023-12-20T01:37:10;-0.40;99.90
56771;DHT22;42641;59.794;17.616;2023-12-20T01:39:36;-0.50;99.90
56771;DHT22;42641;59.794;17.616;2023-12-20T01:42:03;-0.50;99.90
56771;DHT22;42641;59.794;17.616;2023-12-20T01:44:29;-0.60;99.90
56771;DHT22;42641;59.794;17.616;2023-12-20T01:46:56;-0.60;99.90
56771;DHT22;42641;59.794;17.616;2023-12-20T01:49:23;-0.60;99.90
56771;DHT22;42641;59.794;17.616;2023-12-20T01:51:50;-0.80;99.90
56771;DHT22;42641;59.794;17.616;2023-12-20T01:54:17;-0.80;99.90
56771;DHT22;42641;59.794;17.616;2023-12-20T01:56:45;-0.80;99.90
56771;DHT22;42641;59.794;17.616;2023-12-20T01:59:12;-0.80;99.90
56771;DHT22;42641;59.794;17.616;2023-12-20T02:01:39;-0.80;99.90
56771;DHT22;42641;59.794;17.616;2023-12-20T02:04:05;-0.80;99.90
56771;DHT22;42641;59.794;17.616;2023-12-20T02:06:33;-0.90;99.90
56771;DHT22;42641;59.794;17.616;2023-12-20T02:09:00;-0.90;99.90
56771;DHT22;42641;59.794;17.616;2023-12-20T02:11:26;-0.90;99.90
56771;DHT22;42641;59.794;17.616;2023-12-20T02:13:53;-0.90;99.90
56771;DHT22;42641;59.794;17.616;2023-12-20T02:16:21;-0.90;99.90
56771;DHT22;42641;59.794;17.616;2023-12-20T02:18:48;-0.90;99.90
56771;DHT22;42641;59.794;17.616;2023-12-20T02:21:15;-0.90;99.90
56771;DHT22;42641;59.794;17.616;2023-12-20T02:23:41;-0.90;99.90
56771;DHT22;42641;59.794;17.616;2023-12-20T02:26:08;-0.90;99.90
56771;DHT22;42641;59.794;17.616;2023-12-20T02:28:34;-0.80;99.90
56771;DHT22;42641;59.794;17.616;2023-12-20T02:31:01;-0.80;99.90
56771;DHT22;42641;59.794;17.616;2023-12-20T02:33:27;-0.80;99.90
56771;DHT22;42641;59.794;17.616;2023-12-20T02:35:54;-0.80;99.90
56771;DHT22;42641;59.794;17.616;2023-12-20T02:38:20;-0.80;99.90
56771;DHT22;42641;59.794;17.616;2023-12-20T02:40:47;-0.80;99.90
56771;DHT22;42641;59.794;17.616;2023-12-20T02:43:13;-0.80;99.90
56771;DHT22;42641;59.794;17.616;2023-12-20T02:45:40;-0.80;99.90
56771;DHT22;42641;59.794;17.616;2023-12-20T02:48:07;-0.80;99.90
56771;DHT22;42641;59.794;17.616;2023-12-20T02:50:34;-0.80;99.90
56771;DHT22;42641;59.794;17.616;2023-12-20T02:53:00;-0.90;99.90
56771;DHT22;42641;59.794;17.616;2023-12-20T02:55:26;-0.80;99.90
56771;DHT22;42641;59.794;17.616;2023-12-20T02:57:53;-0.80;99.90
56771;DHT22;42641;59.794;17.616;2023-12-20T03:00:19;-0.80;99.90
56771;DHT22;42641;59.794;17.616;2023-12-20T03:02:46;-0.70;99.90
56771;DHT22;42641;59.794;17.616;2023-12-20T03:05:12;-0.70;99.90
56771;DHT22;42641;59.794;17.616;2023-12-20T03:07:38;-0.70;99.90
56771;DHT22;42641;59.794;17.616;2023-12-20T03:10:05;-0.70;99.90
56771;DHT22;42641;59.794;17.616;2023-12-20T03:12:33;-0.70;99.90
56771;DHT22;42641;59.794;17.616;2023-12-20T03:15:00;-0.60;99.90
56771;DHT22;42641;59.794;17.616;2023-12-20T03:17:26;-0.70;99.90
56771;DHT22;42641;59.794;17.616;2023-12-20T03:19:53;-0.70;99.90
56771;DHT22;42641;59.794;17.616;2023-12-20T03:22:19;-0.70;99.90
56771;DHT22;42641;59.794;17.616;2023-12-20T03:24:46;-0.70;99.90
56771;DHT22;42641;59.794;17.616;2023-12-20T03:27:12;-0.70;99.90
56771;DHT22;42641;59.794;17.616;2023-12-20T03:29:38;-0.70;99.90
56771;DHT22;42641;59.794;17.616;2023-12-20T03:32:05;-0.80;99.90
56771;DHT22;42641;59.794;17.616;2023-12-20T03:34:31;-0.70;99.90
56771;DHT22;42641;59.794;17.616;2023-12-20T03:36:58;-0.70;99.90
56771;DHT22;42641;59.794;17.616;2023-12-20T03:39:24;-0.80;99.90
56771;DHT22;42641;59.794;17.616;2023-12-20T03:41:51;-0.80;99.90
56771;DHT22;42641;59.794;17.616;2023-12-20T03:44:17;-0.80;99.90
56771;DHT22;42641;59.794;17.616;2023-12-20T03:46:44;-0.80;99.90
56771;DHT22;42641;59.794;17.616;2023-12-20T03:49:11;-0.80;99.90
56771;DHT22;42641;59.794;17.616;2023-12-20T03:51:38;-0.80;99.90
56771;DHT22;42641;59.794;17.616;2023-12-20T03:54:04;-0.80;99.90
56771;DHT22;42641;59.794;17.616;2023-12-20T03:56:31;-0.80;99.90
56771;DHT22;42641;59.794;17.616;2023-12-20T03:58:57;-0.80;99.90
56771;DHT22;42641;59.794;17.616;2023-12-20T04:01:24;-0.80;99.90
56771;DHT22;42641;59.794;17.616;2023-12-20T04:03:50;-0.90;99.90
56771;DHT22;42641;59.794;17.616;2023-12-20T04:06:17;-1.00;99.90
56771;DHT22;42641;59.794;17.616;2023-12-20T04:08:44;-1.00;99.90
56771;DHT22;42641;59.794;17.616;2023-12-20T04:11:10;-1.00;99.90
56771;DHT22;42641;59.794;17.616;2023-12-20T04:13:37;-1.00;99.90
56771;DHT22;42641;59.794;17.616;2023-12-20T04:16:03;-1.00;99.90
56771;DHT22;42641;59.794;17.616;2023-12-20T04:18:30;-1.00;99.90
56771;DHT22;42641;59.794;17.616;2023-12-20T04:20:58;-1.00;99.90
56771;DHT22;42641;59.794;17.616;2023-12-20T04:23:24;-1.00;99.90
56771;DHT22;42641;59.794;17.616;2023-12-20T04:25:51;-1.00;99.90
56771;DHT22;42641;59.794;17.616;2023-12-20T04:28:17;-0.90;99.90
56771;DHT22;42641;59.794;17.616;2023-12-20T04:30:44;-0.90;99.90
56771;DHT22;42641;59.794;17.616;2023-12-20T04:33:10;-0.90;99.90
56771;DHT22;42641;59.794;17.616;2023-12-20T04:35:36;-0.80;99.90
56771;DHT22;42641;59.794;17.616;2023-12-20T04:38:03;-0.70;99.90
56771;DHT22;42641;59.794;17.616;2023-12-20T04:40:29;-0.60;99.90
56771;DHT22;42641;59.794;17.616;2023-12-20T04:42:56;-0.40;99.90
56771;DHT22;42641;59.794;17.616;2023-12-20T04:45:22;-0.30;99.90
56771;DHT22;42641;59.794;17.616;2023-12-20T04:47:51;-0.20;99.90
56771;DHT22;42641;59.794;17.616;2023-12-20T04:50:17;0.00;99.90
56771;DHT22;42641;59.794;17.616;2023-12-20T04:52:45;0.00;99.90
56771;DHT22;42641;59.794;17.616;2023-12-20T04:55:12;0.10;99.90
56771;DHT22;42641;59.794;17.616;2023-12-20T04:57:38;0.10;99.90
56771;DHT22;42641;59.794;17.616;2023-12-20T05:00:06;0.10;99.90
56771;DHT22;42641;59.794;17.616;2023-12-20T05:02:37;0.20;99.90
56771;DHT22;42641;59.794;17.616;2023-12-20T05:05:04;0.20;99.90
56771;DHT22;42641;59.794;17.616;2023-12-20T05:07:30;0.30;99.90
56771;DHT22;42641;59.794;17.616;2023-12-20T05:09:57;0.30;99.90
56771;DHT22;42641;59.794;17.616;2023-12-20T05:12:23;0.40;99.90
56771;DHT22;42641;59.794;17.616;2023-12-20T05:14:51;0.40;99.90
56771;DHT22;42641;59.794;17.616;2023-12-20T05:17:17;0.40;99.90
56771;DHT22;42641;59.794;17.616;2023-12-20T05:19:44;0.40;99.90
56771;DHT22;42641;59.794;17.616;2023-12-20T05:22:10;0.40;99.90
56771;DHT22;42641;59.794;17.616;2023-12-20T05:24:37;0.40;99.90
56771;DHT22;42641;59.794;17.616;2023-12-20T05:27:04;0.50;99.90
56771;DHT22;42641;59.794;17.616;2023-12-20T05:29:30;0.60;99.90
56771;DHT22;42641;59.794;17.616;2023-12-20T05:31:58;0.70;99.90
56771;DHT22;42641;59.794;17.616;2023-12-20T05:34:24;0.60;99.90
56771;DHT22;42641;59.794;17.616;2023-12-20T05:36:50;0.60;99.90
56771;DHT22;42641;59.794;17.616;2023-12-20T05:39:17;0.60;99.90
56771;DHT22;42641;59.794;17.616;2023-12-20T05:41:44;0.60;99.90
56771;DHT22;42641;59.794;17.616;2023-12-20T05:44:10;0.50;99.90
56771;DHT22;42641;59.794;17.616;2023-12-20T05:46:36;0.50;99.90
56771;DHT22;42641;59.794;17.616;2023-12-20T05:49:03;0.50;99.90
56771;DHT22;42641;59.794;17.616;2023-12-20T05:51:32;0.60;99.90
56771;DHT22;42641;59.794;17.616;2023-12-20T05:53:59;0.60;99.90
56771;DHT22;42641;59.794;17.616;2023-12-20T05:56:25;0.70;99.90
56771;DHT22;42641;59.794;17.616;2023-12-20T05:58:52;0.70;99.90
56771;DHT22;42641;59.794;17.616;2023-12-20T06:01:18;0.70;99.90
56771;DHT22;42641;59.794;17.616;2023-12-20T06:03:44;0.70;99.90
56771;DHT22;42641;59.794;17.616;2023-12-20T06:06:12;0.70;99.90
56771;DHT22;42641;59.794;17.616;2023-12-20T06:08:41;0.70;99.90
56771;DHT22;42641;59.794;17.616;2023-12-20T06:11:09;0.80;99.90
56771;DHT22;42641;59.794;17.616;2023-12-20T06:13:35;0.80;99.90
56771;DHT22;42641;59.794;17.616;2023-12-20T06:16:03;0.80;99.90
56771;DHT22;42641;59.794;17.616;2023-12-20T06:18:29;0.90;99.90
56771;DHT22;42641;59.794;17.616;2023-12-20T06:20:56;0.90;99.90
56771;DHT22;42641;59.794;17.616;2023-12-20T06:23:22;0.90;99.90
56771;DHT22;42641;59.794;17.616;2023-12-20T06:25:48;0.90;99.90
56771;DHT22;42641;59.794;17.616;2023-12-20T06:28:15;0.90;99.90
56771;DHT22;42641;59.794;17.616;2023-12-20T06:30:41;0.80;99.90
56771;DHT22;42641;59.794;17.616;2023-12-20T06:33:08;0.80;99.90
56771;DHT22;42641;59.794;17.616;2023-12-20T06:35:36;0.90;99.90
56771;DHT22;42641;59.794;17.616;2023-12-20T06:38:03;1.00;99.90
56771;DHT22;42641;59.794;17.616;2023-12-20T06:40:29;1.00;99.90
56771;DHT22;42641;59.794;17.616;2023-12-20T06:42:56;1.00;99.90
56771;DHT22;42641;59.794;17.616;2023-12-20T06:45:22;1.10;99.90
56771;DHT22;42641;59.794;17.616;2023-12-20T06:47:48;1.00;99.90
56771;DHT22;42641;59.794;17.616;2023-12-20T06:50:15;1.00;99.90
56771;DHT22;42641;59.794;17.616;2023-12-20T06:52:41;1.00;99.90
56771;DHT22;42641;59.794;17.616;2023-12-20T06:55:08;1.00;99.90
56771;DHT22;42641;59.794;17.616;2023-12-20T06:57:34;1.10;99.90
56771;DHT22;42641;59.794;17.616;2023-12-20T07:00:03;1.10;99.90
56771;DHT22;42641;59.794;17.616;2023-12-20T07:02:30;1.20;99.90
56771;DHT22;42641;59.794;17.616;2023-12-20T07:04:57;1.20;99.90
56771;DHT22;42641;59.794;17.616;2023-12-20T07:07:24;1.20;99.90
56771;DHT22;42641;59.794;17.616;2023-12-20T07:09:50;1.10;99.90
56771;DHT22;42641;59.794;17.616;2023-12-20T07:12:17;1.10;99.90
56771;DHT22;42641;59.794;17.616;2023-12-20T07:14:46;1.10;99.90
56771;DHT22;42641;59.794;17.616;2023-12-20T07:17:12;1.10;99.90
56771;DHT22;42641;59.794;17.616;2023-12-20T07:19:41;1.20;99.90
56771;DHT22;42641;59.794;17.616;2023-12-20T07:22:08;1.20;99.90
56771;DHT22;42641;59.794;17.616;2023-12-20T07:24:35;1.20;99.90
56771;DHT22;42641;59.794;17.616;2023-12-20T07:27:02;1.10;99.90
56771;DHT22;42641;59.794;17.616;2023-12-20T07:29:28;1.10;99.90
56771;DHT22;42641;59.794;17.616;2023-12-20T07:31:55;1.20;99.90
56771;DHT22;42641;59.794;17.616;2023-12-20T07:34:21;1.20;99.90
56771;DHT22;42641;59.794;17.616;2023-12-20T07:36:48;1.10;99.90
56771;DHT22;42641;59.794;17.616;2023-12-20T07:39:14;1.00;99.90
56771;DHT22;42641;59.794;17.616;2023-12-20T07:41:41;1.00;99.90
56771;DHT22;42641;59.794;17.616;2023-12-20T07:44:07;1.00;99.90
56771;DHT22;42641;59.794;17.616;2023-12-20T07:46:34;1.10;99.90
56771;DHT22;42641;59.794;17.616;2023-12-20T07:49:00;1.10;99.90
56771;DHT22;42641;59.794;17.616;2023-12-20T07:51:27;1.20;99.90
56771;DHT22;42641;59.794;17.616;2023-12-20T07:53:53;1.20;99.90
56771;DHT22;42641;59.794;17.616;2023-12-20T07:56:20;1.20;99.90
56771;DHT22;42641;59.794;17.616;2023-12-20T07:58:46;1.30;99.90
56771;DHT22;42641;59.794;17.616;2023-12-20T08:01:16;1.30;99.90
56771;DHT22;42641;59.794;17.616;2023-12-20T08:03:42;1.30;99.90
56771;DHT22;42641;59.794;17.616;2023-12-20T08:06:09;1.30;99.90
56771;DHT22;42641;59.794;17.616;2023-12-20T08:08:35;1.30;99.90
56771;DHT22;42641;59.794;17.616;2023-12-20T08:11:02;1.30;99.90
56771;DHT22;42641;59.794;17.616;2023-12-20T08:13:28;1.30;99.90
56771;DHT22;42641;59.794;17.616;2023-12-20T08:15:56;1.30;99.90
56771;DHT22;42641;59.794;17.616;2023-12-20T08:18:22;1.40;99.90
56771;DHT22;42641;59.794;17.616;2023-12-20T08:20:49;1.40;99.90
56771;DHT22;42641;59.794;17.616;2023-12-20T08:23:15;1.50;99.90
56771;DHT22;42641;59.794;17.616;2023-12-20T08:25:42;1.50;99.90
56771;DHT22;42641;59.794;17.616;2023-12-20T08:28:09;1.50;99.90
56771;DHT22;42641;59.794;17.616;2023-12-20T08:30:35;1.40;99.90
56771;DHT22;42641;59.794;17.616;2023-12-20T08:33:01;1.40;99.90
56771;DHT22;42641;59.794;17.616;2023-12-20T08:35:28;1.50;99.90
56771;DHT22;42641;59.794;17.616;2023-12-20T08:37:55;1.50;99.90
56771;DHT22;42641;59.794;17.616;2023-12-20T08:40:22;1.50;99.90
56771;DHT22;42641;59.794;17.616;2023-12-20T08:42:49;1.50;99.90
56771;DHT22;42641;59.794;17.616;2023-12-20T08:45:16;1.50;99.90
56771;DHT22;42641;59.794;17.616;2023-12-20T08:47:42;1.60;99.90
56771;DHT22;42641;59.794;17.616;2023-12-20T08:50:11;1.60;99.90
56771;DHT22;42641;59.794;17.616;2023-12-20T08:52:38;1.60;99.90
56771;DHT22;42641;59.794;17.616;2023-12-20T08:55:05;1.60;99.90
56771;DHT22;42641;59.794;17.616;2023-12-20T08:57:31;1.70;99.90
56771;DHT22;42641;59.794;17.616;2023-12-20T08:59:58;1.70;99.90
56771;DHT22;42641;59.794;17.616;2023-12-20T09:02:24;1.70;99.90
56771;DHT22;42641;59.794;17.616;2023-12-20T09:04:51;1.70;99.90
56771;DHT22;42641;59.794;17.616;2023-12-20T09:07:24;1.80;99.90
56771;DHT22;42641;59.794;17.616;2023-12-20T09:09:51;1.80;99.90
56771;DHT22;42641;59.794;17.616;2023-12-20T09:12:19;1.80;99.90
56771;DHT22;42641;59.794;17.616;2023-12-20T09:14:46;1.80;99.90
56771;DHT22;42641;59.794;17.616;2023-12-20T09:17:13;1.80;99.90
56771;DHT22;42641;59.794;17.616;2023-12-20T09:19:40;1.80;99.90
56771;DHT22;42641;59.794;17.616;2023-12-20T09:22:06;1.70;99.90
56771;DHT22;42641;59.794;17.616;2023-12-20T09:24:33;1.70;99.90
56771;DHT22;42641;59.794;17.616;2023-12-20T09:27:00;1.70;99.90
56771;DHT22;42641;59.794;17.616;2023-12-20T09:29:26;1.70;99.90
56771;DHT22;42641;59.794;17.616;2023-12-20T09:31:52;1.80;99.90
56771;DHT22;42641;59.794;17.616;2023-12-20T09:34:19;1.80;99.90
56771;DHT22;42641;59.794;17.616;2023-12-20T09:36:45;1.90;99.90
56771;DHT22;42641;59.794;17.616;2023-12-20T09:39:18;1.90;99.90
56771;DHT22;42641;59.794;17.616;2023-12-20T09:42:01;1.90;99.90
56771;DHT22;42641;59.794;17.616;2023-12-20T09:44:29;1.90;99.90
56771;DHT22;42641;59.794;17.616;2023-12-20T09:46:56;1.90;99.90
56771;DHT22;42641;59.794;17.616;2023-12-20T09:49:23;1.90;99.90
56771;DHT22;42641;59.794;17.616;2023-12-20T09:51:54;1.90;99.90
56771;DHT22;42641;59.794;17.616;2023-12-20T09:54:21;2.00;99.90
56771;DHT22;42641;59.794;17.616;2023-12-20T09:56:48;2.00;99.90
56771;DHT22;42641;59.794;17.616;2023-12-20T09:59:14;2.00;99.90
56771;DHT22;42641;59.794;17.616;2023-12-20T10:01:42;2.00;99.90
56771;DHT22;42641;59.794;17.616;2023-12-20T10:04:09;2.00;99.90
56771;DHT22;42641;59.794;17.616;2023-12-20T10:06:42;2.10;99.90
56771;DHT22;42641;59.794;17.616;2023-12-20T10:09:10;2.10;99.90
56771;DHT22;42641;59.794;17.616;2023-12-20T10:11:37;2.20;99.90
56771;DHT22;42641;59.794;17.616;2023-12-20T10:14:04;2.20;99.90
56771;DHT22;42641;59.794;17.616;2023-12-20T10:16:32;2.20;99.90
56771;DHT22;42641;59.794;17.616;2023-12-20T10:18:59;2.20;99.90
56771;DHT22;42641;59.794;17.616;2023-12-20T10:21:27;2.20;99.90
56771;DHT22;42641;59.794;17.616;2023-12-20T10:23:54;2.30;99.90
56771;DHT22;42641;59.794;17.616;2023-12-20T10:26:23;2.30;99.90
56771;DHT22;42641;59.794;17.616;2023-12-20T10:28:59;2.40;99.90
56771;DHT22;42641;59.794;17.616;2023-12-20T10:31:30;2.40;99.90
56771;DHT22;42641;59.794;17.616;2023-12-20T10:34:01;2.50;99.90
56771;DHT22;42641;59.794;17.616;2023-12-20T10:36:30;2.50;99.90
56771;DHT22;42641;59.794;17.616;2023-12-20T10:38:57;2.50;99.90
56771;DHT22;42641;59.794;17.616;2023-12-20T10:41:31;2.50;99.90
56771;DHT22;42641;59.794;17.616;2023-12-20T10:44:00;2.40;99.90
56771;DHT22;42641;59.794;17.616;2023-12-20T10:46:27;2.40;99.90
56771;DHT22;42641;59.794;17.616;2023-12-20T10:48:57;2.40;99.90
56771;DHT22;42641;59.794;17.616;2023-12-20T10:51:24;2.40;99.90
56771;DHT22;42641;59.794;17.616;2023-12-20T10:53:53;2.30;99.90
56771;DHT22;42641;59.794;17.616;2023-12-20T10:56:20;2.30;99.90
56771;DHT22;42641;59.794;17.616;2023-12-20T10:58:50;2.30;99.90
56771;DHT22;42641;59.794;17.616;2023-12-20T11:01:18;2.30;99.90
56771;DHT22;42641;59.794;17.616;2023-12-20T11:03:50;2.30;99.90
56771;DHT22;42641;59.794;17.616;2023-12-20T11:09:04;2.40;99.90
56771;DHT22;42641;59.794;17.616;2023-12-20T11:14:35;2.40;99.90
56771;DHT22;42641;59.794;17.616;2023-12-20T11:17:10;2.40;99.90
56771;DHT22;42641;59.794;17.616;2023-12-20T11:20:04;2.40;99.90
56771;DHT22;42641;59.794;17.616;2023-12-20T11:22:32;2.40;99.90
56771;DHT22;42641;59.794;17.616;2023-12-20T11:27:35;2.40;99.90
56771;DHT22;42641;59.794;17.616;2023-12-20T11:30:05;2.40;99.90
56771;DHT22;42641;59.794;17.616;2023-12-20T11:32:36;2.40;99.90
56771;DHT22;42641;59.794;17.616;2023-12-20T11:37:37;2.50;99.90
56771;DHT22;42641;59.794;17.616;2023-12-20T11:40:11;2.50;99.90
56771;DHT22;42641;59.794;17.616;2023-12-20T11:42:38;2.50;99.90
56771;DHT22;42641;59.794;17.616;2023-12-20T11:45:08;2.50;99.90
56771;DHT22;42641;59.794;17.616;2023-12-20T11:47:35;2.40;99.90
56771;DHT22;42641;59.794;17.616;2023-12-20T11:50:02;2.50;99.90
56771;DHT22;42641;59.794;17.616;2023-12-20T11:52:30;2.50;99.90
56771;DHT22;42641;59.794;17.616;2023-12-20T11:54:57;2.40;99.90
56771;DHT22;42641;59.794;17.616;2023-12-20T11:57:24;2.50;99.90
56771;DHT22;42641;59.794;17.616;2023-12-20T11:59:51;2.40;99.90
56771;DHT22;42641;59.794;17.616;2023-12-20T12:02:17;2.40;99.90
56771;DHT22;42641;59.794;17.616;2023-12-20T12:04:43;2.50;99.90
56771;DHT22;42641;59.794;17.616;2023-12-20T12:07:10;2.40;99.90
56771;DHT22;42641;59.794;17.616;2023-12-20T12:09:37;2.40;99.90
56771;DHT22;42641;59.794;17.616;2023-12-20T12:12:04;2.30;99.90
56771;DHT22;42641;59.794;17.616;2023-12-20T12:14:30;2.30;99.90
56771;DHT22;42641;59.794;17.616;2023-12-20T12:16:57;2.30;99.90
56771;DHT22;42641;59.794;17.616;2023-12-20T12:19:24;2.30;99.90
56771;DHT22;42641;59.794;17.616;2023-12-20T12:22:03;2.30;99.90
56771;DHT22;42641;59.794;17.616;2023-12-20T12:24:31;2.30;99.90
56771;DHT22;42641;59.794;17.616;2023-12-20T12:26:58;2.30;99.90
56771;DHT22;42641;59.794;17.616;2023-12-20T12:29:25;2.30;99.90
56771;DHT22;42641;59.794;17.616;2023-12-20T12:31:51;2.30;99.90
56771;DHT22;42641;59.794;17.616;2023-12-20T12:34:18;2.30;99.90
56771;DHT22;42641;59.794;17.616;2023-12-20T12:36:44;2.30;99.90
56771;DHT22;42641;59.794;17.616;2023-12-20T12:39:12;2.30;99.90
56771;DHT22;42641;59.794;17.616;2023-12-20T12:41:41;2.30;99.90
56771;DHT22;42641;59.794;17.616;2023-12-20T12:44:08;2.30;99.90
56771;DHT22;42641;59.794;17.616;2023-12-20T12:46:35;2.30;99.90
56771;DHT22;42641;59.794;17.616;2023-12-20T12:49:02;2.30;99.90
56771;DHT22;42641;59.794;17.616;2023-12-20T12:51:28;2.30;99.90
56771;DHT22;42641;59.794;17.616;2023-12-20T12:53:54;2.40;99.90
56771;DHT22;42641;59.794;17.616;2023-12-20T12:56:21;2.40;99.90
56771;DHT22;42641;59.794;17.616;2023-12-20T12:58:48;2.50;99.90
56771;DHT22;42641;59.794;17.616;2023-12-20T13:01:14;2.50;99.90
56771;DHT22;42641;59.794;17.616;2023-12-20T13:03:41;2.50;99.90
56771;DHT22;42641;59.794;17.616;2023-12-20T13:06:07;2.50;99.90
56771;DHT22;42641;59.794;17.616;2023-12-20T13:08:35;2.60;99.90
56771;DHT22;42641;59.794;17.616;2023-12-20T13:11:01;2.50;99.90
56771;DHT22;42641;59.794;17.616;2023-12-20T13:13:33;2.50;99.90
56771;DHT22;42641;59.794;17.616;2023-12-20T13:15:59;2.50;99.90
56771;DHT22;42641;59.794;17.616;2023-12-20T13:18:27;2.50;99.90
56771;DHT22;42641;59.794;17.616;2023-12-20T13:20:53;2.50;99.90
56771;DHT22;42641;59.794;17.616;2023-12-20T13:23:19;2.50;99.90
56771;DHT22;42641;59.794;17.616;2023-12-20T13:25:46;2.50;99.90
56771;DHT22;42641;59.794;17.616;2023-12-20T13:28:13;2.50;99.90
56771;DHT22;42641;59.794;17.616;2023-12-20T13:30:40;2.50;99.90
56771;DHT22;42641;59.794;17.616;2023-12-20T13:33:06;2.50;99.90
56771;DHT22;42641;59.794;17.616;2023-12-20T13:35:34;2.40;99.90
56771;DHT22;42641;59.794;17.616;2023-12-20T13:38:00;2.40;99.90
56771;DHT22;42641;59.794;17.616;2023-12-20T13:40:27;2.40;99.90
56771;DHT22;42641;59.794;17.616;2023-12-20T13:42:54;2.40;99.90
56771;DHT22;42641;59.794;17.616;2023-12-20T13:45:21;2.40;99.90
56771;DHT22;42641;59.794;17.616;2023-12-20T13:47:48;2.30;99.90
56771;DHT22;42641;59.794;17.616;2023-12-20T13:50:15;2.30;99.90
56771;DHT22;42641;59.794;17.616;2023-12-20T13:52:42;2.30;99.90
56771;DHT22;42641;59.794;17.616;2023-12-20T13:55:09;2.30;99.90
56771;DHT22;42641;59.794;17.616;2023-12-20T13:57:35;2.30;99.90
56771;DHT22;42641;59.794;17.616;2023-12-20T14:00:05;2.40;99.90
56771;DHT22;42641;59.794;17.616;2023-12-20T14:02:33;2.30;99.90
56771;DHT22;42641;59.794;17.616;2023-12-20T14:04:59;2.40;99.90
56771;DHT22;42641;59.794;17.616;2023-12-20T14:07:26;2.30;99.90
56771;DHT22;42641;59.794;17.616;2023-12-20T14:09:55;2.40;99.90
56771;DHT22;42641;59.794;17.616;2023-12-20T14:12:21;2.40;99.90
56771;DHT22;42641;59.794;17.616;2023-12-20T14:14:48;2.30;99.90
56771;DHT22;42641;59.794;17.616;2023-12-20T14:17:14;2.20;99.90
56771;DHT22;42641;59.794;17.616;2023-12-20T14:19:41;2.30;99.90
56771;DHT22;42641;59.794;17.616;2023-12-20T14:22:07;2.30;99.90
56771;DHT22;42641;59.794;17.616;2023-12-20T14:24:35;2.30;99.90
56771;DHT22;42641;59.794;17.616;2023-12-20T14:27:02;2.30;99.90
56771;DHT22;42641;59.794;17.616;2023-12-20T14:29:28;2.30;99.90
56771;DHT22;42641;59.794;17.616;2023-12-20T14:31:55;2.40;99.90
56771;DHT22;42641;59.794;17.616;2023-12-20T14:34:21;2.30;99.90
56771;DHT22;42641;59.794;17.616;2023-12-20T14:36:49;2.30;99.90
56771;DHT22;42641;59.794;17.616;2023-12-20T14:39:16;2.40;99.90
56771;DHT22;42641;59.794;17.616;2023-12-20T14:41:43;2.40;99.90
56771;DHT22;42641;59.794;17.616;2023-12-20T14:44:11;2.30;99.90
56771;DHT22;42641;59.794;17.616;2023-12-20T14:46:37;2.40;99.90
56771;DHT22;42641;59.794;17.616;2023-12-20T14:49:05;2.30;99.90
56771;DHT22;42641;59.794;17.616;2023-12-20T14:51:31;2.40;99.90
56771;DHT22;42641;59.794;17.616;2023-12-20T14:53:58;2.40;99.90
56771;DHT22;42641;59.794;17.616;2023-12-20T14:56:24;2.40;99.90
56771;DHT22;42641;59.794;17.616;2023-12-20T14:58:52;2.30;99.90
56771;DHT22;42641;59.794;17.616;2023-12-20T15:01:19;2.40;99.90
56771;DHT22;42641;59.794;17.616;2023-12-20T15:03:49;2.40;99.90
56771;DHT22;42641;59.794;17.616;2023-12-20T15:06:16;2.40;99.90
56771;DHT22;42641;59.794;17.616;2023-12-20T15:08:42;2.40;99.90
56771;DHT22;42641;59.794;17.616;2023-12-20T15:11:09;2.50;99.90
56771;DHT22;42641;59.794;17.616;2023-12-20T15:13:35;2.50;99.90
56771;DHT22;42641;59.794;17.616;2023-12-20T15:16:02;2.50;99.90
56771;DHT22;42641;59.794;17.616;2023-12-20T15:18:28;2.50;99.90
56771;DHT22;42641;59.794;17.616;2023-12-20T15:20:57;2.50;99.90
56771;DHT22;42641;59.794;17.616;2023-12-20T15:23:24;2.50;99.90
56771;DHT22;42641;59.794;17.616;2023-12-20T15:25:52;2.50;99.90
56771;DHT22;42641;59.794;17.616;2023-12-20T15:28:19;2.40;99.90
56771;DHT22;42641;59.794;17.616;2023-12-20T15:30:45;2.40;99.90
56771;DHT22;42641;59.794;17.616;2023-12-20T15:33:12;2.40;99.90
56771;DHT22;42641;59.794;17.616;2023-12-20T15:35:38;2.40;99.90
56771;DHT22;42641;59.794;17.616;2023-12-20T15:38:05;2.50;99.90